Time;durP1;ratioP1;P1;durP2;ratioP2;P2;SDS_P1;SDS_P2;PMS_P1;PMS_P2;Temp;Humidity;BMP_temperature;BMP_pressure;BME280_temperature;BME280_humidity;BME280_pressure;Samples;Min_cycle;Max_cycle;Signal;HPM_P1;HPM_P2
2022/01/29 00:00:01;;;;;;;11.20;3.60;;;3.50;99.90;;;4.13;100.00;-19867.34;5053496;28;20246;-70
2022/01/29 00:02:29;;;;;;;9.87;3.07;;;3.50;99.90;;;4.27;100.00;-19872.31;5050947;28;20217;-68
2022/01/29 00:04:57;;;;;;;14.67;4.20;;;3.50;99.90;;;4.43;100.00;-19877.59;5049471;28;20230;-69
2022/01/29 00:07:25;;;;;;;13.77;3.60;;;3.50;99.90;;;4.32;100.00;-19874.03;5037902;28;20548;-69
2022/01/29 00:10:00;;;;;;;7.70;3.23;;;3.50;99.90;;;4.25;100.00;-19871.63;5049126;28;20285;-69
2022/01/29 00:12:31;;;;;;;13.07;4.03;;;3.50;99.90;;;4.21;100.00;-19870.25;5053196;28;20244;-71
2022/01/29 00:14:59;;;;;;;16.53;3.37;;;3.40;99.90;;;4.19;100.00;-19869.56;5070978;28;20217;-69
2022/01/29 00:17:28;;;;;;;10.17;3.77;;;3.40;99.90;;;4.19;100.00;-19869.41;5070950;28;20218;-70
2022/01/29 00:19:56;;;;;;;9.93;3.33;;;3.40;99.90;;;4.23;100.00;-19870.94;5071930;28;20234;-64
2022/01/29 00:22:25;;;;;;;16.23;3.87;;;3.40;99.90;;;4.18;100.00;-19869.22;5069287;28;20790;-63
2022/01/29 00:24:56;;;;;;;9.73;3.47;;;3.40;99.90;;;4.25;100.00;-19871.44;5068114;28;20224;-63
2022/01/29 00:27:26;;;;;;;12.67;3.67;;;3.40;99.90;;;4.33;100.00;-19874.19;5068857;28;20231;-63
2022/01/29 00:29:56;;;;;;;10.07;3.83;;;3.40;99.90;;;4.31;100.00;-19873.50;5071327;28;20187;-62
2022/01/29 00:32:24;;;;;;;11.03;3.20;;;3.50;99.90;;;4.09;100.00;-19865.97;5068906;28;20288;-62
2022/01/29 00:34:53;;;;;;;10.37;3.40;;;3.50;99.90;;;4.14;100.00;-19867.88;5069209;28;20249;-64
2022/01/29 00:37:21;;;;;;;12.50;3.43;;;3.50;99.90;;;4.06;100.00;-19864.97;5069716;28;20939;-63
2022/01/29 00:39:50;;;;;;;15.53;4.10;;;3.40;99.90;;;4.10;100.00;-19866.50;5069962;28;20238;-62
2022/01/29 00:42:18;;;;;;;12.57;3.33;;;3.50;99.90;;;4.11;100.00;-19866.84;5068505;28;20701;-63
2022/01/29 00:44:46;;;;;;;12.00;3.80;;;3.50;99.90;;;4.26;100.00;-19871.78;5067349;28;20207;-63
2022/01/29 00:47:17;;;;;;;12.20;3.80;;;3.50;99.90;;;4.28;100.00;-19872.66;5068338;28;20220;-63
2022/01/29 00:49:45;;;;;;;16.80;4.60;;;3.50;99.90;;;4.41;100.00;-19876.94;5069182;28;20277;-63
2022/01/29 00:52:14;;;;;;;9.37;3.27;;;3.50;99.90;;;4.49;100.00;-19879.81;5067583;28;20732;-63
2022/01/29 00:54:44;;;;;;;13.07;3.67;;;3.60;99.90;;;4.56;100.00;-19882.22;5068513;28;20232;-63
2022/01/29 00:57:13;;;;;;;11.73;3.23;;;3.70;99.90;;;4.22;100.00;-19870.59;5068169;28;20197;-63
2022/01/29 00:59:41;;;;;;;12.77;3.33;;;3.60;99.90;;;4.49;100.00;-19879.66;5070065;28;20225;-64
2022/01/29 01:02:10;;;;;;;14.60;3.47;;;3.70;99.90;;;4.25;100.00;-19871.63;5069160;28;20716;-62
2022/01/29 01:04:40;;;;;;;8.80;3.10;;;3.60;99.90;;;4.45;100.00;-19878.47;5071274;28;20306;-63
2022/01/29 01:07:10;;;;;;;7.53;3.10;;;3.60;99.90;;;4.25;100.00;-19871.44;5070310;28;20225;-64
2022/01/29 01:09:38;;;;;;;15.23;3.07;;;3.60;99.90;;;4.38;100.00;-19876.06;5069919;28;20231;-62
2022/01/29 01:12:08;;;;;;;10.03;3.10;;;3.60;99.90;;;4.27;100.00;-19872.31;5069194;28;20306;-64
2022/01/29 01:14:37;;;;;;;13.30;3.80;;;3.60;99.90;;;4.33;100.00;-19874.34;5067743;28;20252;-63
2022/01/29 01:17:06;;;;;;;12.73;3.53;;;3.50;99.90;;;4.41;100.00;-19877.09;5048466;28;20238;-62
2022/01/29 01:19:36;;;;;;;12.97;3.50;;;3.60;99.90;;;4.51;100.00;-19880.50;5044544;28;20645;-63
2022/01/29 01:22:06;;;;;;;11.23;3.07;;;3.60;99.90;;;4.27;100.00;-19872.31;5042712;28;20232;-61
2022/01/29 01:24:34;;;;;;;14.57;3.93;;;3.60;99.90;;;4.27;100.00;-19872.31;5052171;28;20229;-63
2022/01/29 01:27:03;;;;;;;6.60;2.90;;;3.60;99.90;;;4.33;100.00;-19874.34;5066989;28;20189;-64
2022/01/29 01:29:31;;;;;;;10.63;3.23;;;3.60;99.90;;;4.43;100.00;-19877.78;5047668;28;20282;-63
2022/01/29 01:31:59;;;;;;;12.70;4.70;;;3.60;99.90;;;4.34;100.00;-19874.69;5048493;28;20231;-62
2022/01/29 01:34:31;;;;;;;9.43;3.53;;;3.60;99.90;;;4.36;100.00;-19875.22;5060016;28;20271;-62
2022/01/29 01:37:04;;;;;;;11.57;3.47;;;3.60;99.90;;;4.37;100.00;-19875.56;5058701;28;20313;-62
2022/01/29 01:39:37;;;;;;;13.90;3.97;;;3.50;99.90;;;4.27;100.00;-19872.13;5045119;28;20238;-63
2022/01/29 01:42:07;;;;;;;16.63;3.40;;;3.50;99.90;;;4.31;100.00;-19873.50;5048109;28;20621;-63
2022/01/29 01:44:38;;;;;;;11.00;3.63;;;3.50;99.90;;;4.43;100.00;-19877.59;5068623;28;20323;-63
2022/01/29 01:47:07;;;;;;;10.23;3.50;;;3.50;99.90;;;4.41;100.00;-19876.94;5050924;28;20227;-63
2022/01/29 01:49:37;;;;;;;6.23;3.10;;;3.60;99.90;;;4.20;100.00;-19869.91;5060872;28;20227;-63
2022/01/29 01:52:10;;;;;;;11.97;3.60;;;3.50;99.90;;;4.21;100.00;-19870.25;5068654;28;20262;-63
2022/01/29 01:54:42;;;;;;;12.80;3.57;;;3.50;99.90;;;4.41;100.00;-19876.94;5067866;28;20218;-62
2022/01/29 01:57:12;;;;;;;12.90;3.90;;;3.60;99.90;;;4.38;100.00;-19876.06;5067469;28;20222;-62
2022/01/29 01:59:40;;;;;;;9.63;3.17;;;3.60;99.90;;;4.46;100.00;-19878.81;5067933;28;20245;-64
2022/01/29 02:02:08;;;;;;;11.90;3.80;;;3.60;99.90;;;4.51;100.00;-19880.34;5067323;28;20297;-63
2022/01/29 02:04:38;;;;;;;9.57;3.50;;;3.60;99.90;;;4.35;100.00;-19875.03;5066192;28;20326;-64
2022/01/29 02:07:07;;;;;;;13.17;3.50;;;3.60;99.90;;;4.32;100.00;-19874.03;5067794;28;20283;-63
2022/01/29 02:09:37;;;;;;;8.37;3.10;;;3.60;99.90;;;4.23;100.00;-19870.94;5067374;28;20326;-63
2022/01/29 02:12:10;;;;;;;14.37;3.77;;;3.60;99.90;;;4.42;100.00;-19877.25;5067685;28;20206;-63
2022/01/29 02:14:39;;;;;;;11.27;3.70;;;3.60;99.90;;;4.32;100.00;-19873.84;5067318;28;20248;-62
2022/01/29 02:17:09;;;;;;;12.97;3.47;;;3.60;99.90;;;4.21;100.00;-19870.25;5067813;28;20938;-63
2022/01/29 02:19:37;;;;;;;14.50;4.17;;;3.60;99.90;;;4.27;100.00;-19872.13;5069403;28;20293;-63
2022/01/29 02:22:07;;;;;;;9.70;4.03;;;3.50;99.90;;;4.27;100.00;-19872.13;5068526;28;20280;-63
2022/01/29 02:24:36;;;;;;;8.57;3.57;;;3.50;99.90;;;4.13;100.00;-19867.34;5068819;28;20279;-63
2022/01/29 02:27:04;;;;;;;10.03;3.80;;;3.50;99.90;;;4.27;100.00;-19872.13;5068937;28;20258;-64
2022/01/29 02:29:34;;;;;;;10.00;3.40;;;3.60;99.90;;;4.32;100.00;-19874.03;5068095;28;20717;-63
2022/01/29 02:32:04;;;;;;;9.93;3.70;;;3.60;99.90;;;4.29;100.00;-19873.00;5067085;28;20224;-63
2022/01/29 02:34:32;;;;;;;11.20;4.10;;;3.60;99.90;;;4.48;100.00;-19879.47;5066598;28;20226;-63
2022/01/29 02:37:01;;;;;;;10.23;3.60;;;3.70;99.90;;;4.47;100.00;-19879.16;5066918;28;20226;-64
2022/01/29 02:39:31;;;;;;;11.73;4.40;;;3.70;99.90;;;4.37;100.00;-19875.72;5066954;28;20249;-63
2022/01/29 02:41:59;;;;;;;10.73;3.80;;;3.60;99.90;;;4.56;100.00;-19882.22;5067765;28;20331;-64
2022/01/29 02:44:30;;;;;;;7.43;3.73;;;3.70;99.90;;;4.68;100.00;-19886.31;5067374;28;20218;-63
2022/01/29 02:47:14;;;;;;;11.73;3.80;;;3.70;99.90;;;4.57;100.00;-19882.56;5067368;28;20303;-63
2022/01/29 02:49:42;;;;;;;10.37;3.60;;;3.80;99.90;;;4.51;100.00;-19880.34;5067340;28;20228;-63
2022/01/29 02:52:10;;;;;;;10.00;3.73;;;3.80;99.90;;;4.73;100.00;-19888.03;5071113;28;20255;-63
2022/01/29 02:54:40;;;;;;;11.80;3.97;;;3.80;99.90;;;4.59;100.00;-19883.06;5069833;28;20222;-63
2022/01/29 02:57:08;;;;;;;14.90;4.50;;;3.80;99.90;;;4.71;100.00;-19887.34;5069802;28;20230;-70
2022/01/29 02:59:36;;;;;;;12.17;4.67;;;3.80;99.90;;;4.65;100.00;-19885.28;5061444;28;20256;-70
2022/01/29 03:02:04;;;;;;;10.33;3.67;;;3.90;99.90;;;4.82;100.00;-19891.09;5053325;28;20236;-71
2022/01/29 03:04:33;;;;;;;8.00;3.57;;;3.90;99.90;;;4.76;100.00;-19889.06;5051509;28;20255;-69
2022/01/29 03:07:01;;;;;;;6.90;3.30;;;4.00;99.90;;;4.81;100.00;-19890.59;5061178;28;20515;-70
2022/01/29 03:09:29;;;;;;;9.03;4.30;;;4.00;99.90;;;4.86;100.00;-19892.47;5071968;28;20714;-71
2022/01/29 03:11:59;;;;;;;10.03;3.97;;;4.00;99.90;;;4.70;100.00;-19887.00;5071686;28;20208;-71
2022/01/29 03:14:27;;;;;;;8.63;3.80;;;4.00;99.90;;;4.78;100.00;-19889.75;5072358;28;20214;-70
2022/01/29 03:16:56;;;;;;;11.00;3.60;;;4.00;99.90;;;4.84;100.00;-19891.78;5072612;28;20281;-70
2022/01/29 03:19:24;;;;;;;11.73;4.60;;;4.00;99.90;;;4.89;100.00;-19893.31;5072388;28;20223;-69
2022/01/29 03:21:52;;;;;;;9.70;4.40;;;4.00;99.90;;;4.85;100.00;-19891.97;5069145;28;20228;-71
2022/01/29 03:24:21;;;;;;;7.40;3.63;;;4.00;99.90;;;4.99;100.00;-19896.91;5071869;28;20229;-70
2022/01/29 03:26:49;;;;;;;7.40;3.77;;;4.10;99.90;;;4.80;100.00;-19890.25;5071816;28;20238;-70
2022/01/29 03:29:18;;;;;;;8.40;3.50;;;4.10;99.90;;;4.70;100.00;-19886.84;5073730;28;20309;-69
2022/01/29 03:31:46;;;;;;;10.67;3.53;;;4.10;99.90;;;4.72;100.00;-19887.69;5071663;28;20761;-70
2022/01/29 03:34:14;;;;;;;8.80;3.53;;;4.10;99.90;;;4.93;100.00;-19894.88;5072490;28;20307;-71
2022/01/29 03:36:42;;;;;;;8.90;3.60;;;4.10;99.90;;;5.02;100.00;-19897.59;5073109;28;20756;-70
2022/01/29 03:39:10;;;;;;;9.10;3.87;;;4.20;99.90;;;4.92;100.00;-19894.53;5070895;28;20206;-71
2022/01/29 03:41:39;;;;;;;8.23;4.23;;;4.20;99.90;;;4.91;100.00;-19894.19;5071811;28;20336;-70
2022/01/29 03:44:08;;;;;;;10.87;3.60;;;4.20;99.90;;;4.88;100.00;-19893.00;5070778;28;20227;-70
2022/01/29 03:46:37;;;;;;;7.93;3.90;;;4.10;99.90;;;4.91;100.00;-19894.19;5071833;28;20227;-70
2022/01/29 03:49:06;;;;;;;7.30;3.43;;;4.20;99.90;;;5.17;100.00;-19902.72;5072574;28;20246;-71
2022/01/29 03:51:34;;;;;;;7.93;4.10;;;4.20;99.90;;;5.07;100.00;-19899.31;5071640;28;20255;-69
2022/01/29 03:54:02;;;;;;;9.50;4.03;;;4.40;99.90;;;5.12;100.00;-19901.19;5070867;28;20239;-69
2022/01/29 03:56:30;;;;;;;5.47;3.10;;;4.30;99.90;;;5.13;100.00;-19901.38;5071520;28;20901;-69
2022/01/29 03:58:58;;;;;;;5.93;3.20;;;4.30;99.90;;;5.28;100.00;-19906.50;5067019;28;20228;-70
2022/01/29 04:01:26;;;;;;;7.07;3.60;;;4.40;99.90;;;5.11;100.00;-19900.84;5069866;28;20300;-70
2022/01/29 04:03:57;;;;;;;8.67;3.37;;;4.30;99.90;;;5.07;100.00;-19899.50;5046817;28;20224;-70
2022/01/29 04:06:26;;;;;;;10.70;3.60;;;4.30;99.90;;;5.12;100.00;-19901.19;5053861;28;20274;-70
2022/01/29 04:08:54;;;;;;;7.97;3.57;;;4.30;99.90;;;5.32;100.00;-19908.03;5055085;28;20191;-70
2022/01/29 04:11:22;;;;;;;7.30;4.07;;;4.40;99.90;;;5.25;100.00;-19905.63;5054050;28;20251;-71
2022/01/29 04:13:51;;;;;;;7.93;3.60;;;4.40;99.90;;;5.10;100.00;-19900.50;5054775;28;20227;-70
2022/01/29 04:16:19;;;;;;;9.90;3.87;;;4.40;99.90;;;5.26;100.00;-19905.97;5068075;28;20286;-71
2022/01/29 04:18:47;;;;;;;10.10;3.80;;;4.40;99.90;;;5.26;100.00;-19905.97;5072696;28;20226;-68
2022/01/29 04:21:17;;;;;;;6.40;3.53;;;4.40;99.90;;;5.42;100.00;-19911.44;5073214;28;20220;-72
2022/01/29 04:23:45;;;;;;;7.17;3.80;;;4.50;99.90;;;5.46;100.00;-19912.81;5073243;28;20196;-69
2022/01/29 04:26:13;;;;;;;7.30;3.67;;;4.50;99.90;;;5.37;100.00;-19909.56;5070204;28;20257;-70
2022/01/29 04:28:43;;;;;;;11.43;4.20;;;4.50;99.90;;;5.29;100.00;-19907.00;5073196;28;20261;-70
2022/01/29 04:31:16;;;;;;;5.93;3.87;;;4.50;99.90;;;5.41;100.00;-19910.94;5072556;28;20228;-71
2022/01/29 04:33:44;;;;;;;8.03;3.40;;;4.50;99.90;;;5.37;100.00;-19909.75;5072135;28;20245;-71
2022/01/29 04:36:13;;;;;;;7.70;4.20;;;4.50;99.90;;;5.35;100.00;-19908.88;5070353;28;20195;-70
2022/01/29 04:38:42;;;;;;;6.63;3.20;;;4.50;99.90;;;5.36;100.00;-19909.22;5073474;28;20202;-71
2022/01/29 04:41:10;;;;;;;9.33;3.83;;;4.50;99.90;;;5.13;100.00;-19901.53;5072549;28;20244;-70
2022/01/29 04:43:38;;;;;;;6.43;3.20;;;4.40;99.90;;;5.30;100.00;-19907.34;5072473;28;20247;-69
2022/01/29 04:46:08;;;;;;;10.27;4.10;;;4.40;99.90;;;5.14;100.00;-19901.72;5072136;28;20226;-70
2022/01/29 04:48:37;;;;;;;6.27;3.50;;;4.40;99.90;;;5.03;100.00;-19897.94;5072873;28;20224;-69
2022/01/29 04:51:05;;;;;;;9.30;3.93;;;4.30;99.90;;;5.07;100.00;-19899.50;5072505;28;20199;-70
2022/01/29 04:53:35;;;;;;;7.60;3.63;;;4.30;99.90;;;5.23;100.00;-19904.94;5070960;28;20203;-70
2022/01/29 04:56:05;;;;;;;7.27;3.90;;;4.30;99.90;;;5.13;100.00;-19901.53;5051330;28;20743;-71
2022/01/29 04:58:34;;;;;;;10.00;4.03;;;4.30;99.90;;;5.04;100.00;-19898.47;5063864;28;20227;-70
2022/01/29 05:01:03;;;;;;;8.33;3.90;;;4.30;99.90;;;4.96;100.00;-19895.91;5071720;28;20235;-71
2022/01/29 05:03:33;;;;;;;8.57;4.40;;;4.30;99.90;;;5.09;100.00;-19900.00;5071863;28;20224;-68
2022/01/29 05:06:09;;;;;;;9.30;4.13;;;4.30;99.90;;;5.20;100.00;-19903.75;5071571;28;20197;-68
2022/01/29 05:08:37;;;;;;;8.60;3.97;;;4.30;99.90;;;5.29;100.00;-19906.84;5054267;28;20200;-70
2022/01/29 05:11:08;;;;;;;10.30;4.37;;;4.30;99.90;;;5.42;100.00;-19911.44;5049925;28;20213;-71
2022/01/29 05:13:39;;;;;;;6.60;3.93;;;4.40;99.90;;;5.18;100.00;-19903.25;5050855;28;20220;-70
2022/01/29 05:16:30;;;;;;;7.60;3.87;;;4.40;99.90;;;5.21;100.00;-19904.09;5045081;28;20247;-71
2022/01/29 05:27:16;;;;;;;8.40;4.50;;;4.40;99.90;;;5.35;100.00;-19908.88;5050742;28;20192;-71
2022/01/29 05:29:45;;;;;;;7.27;4.33;;;4.40;99.90;;;5.20;100.00;-19903.94;5051197;28;20201;-70
2022/01/29 05:32:15;;;;;;;7.80;5.00;;;4.50;99.90;;;5.29;100.00;-19907.00;5050235;28;20642;-69
2022/01/29 05:34:43;;;;;;;6.63;4.60;;;4.50;99.90;;;5.13;100.00;-19901.38;5064809;28;20610;-70
2022/01/29 05:37:31;;;;;;;7.53;5.00;;;4.40;99.90;;;5.16;100.00;-19902.56;5070235;28;20222;-71
2022/01/29 05:39:59;;;;;;;6.93;4.73;;;4.40;99.90;;;5.21;100.00;-19904.09;5070313;28;20650;-70
2022/01/29 05:42:28;;;;;;;8.20;5.47;;;4.40;99.90;;;5.14;100.00;-19901.72;5068778;28;20262;-71
2022/01/29 05:44:56;;;;;;;9.30;5.87;;;4.40;99.90;;;5.13;100.00;-19901.38;5071627;28;20199;-70
2022/01/29 05:47:24;;;;;;;7.93;5.20;;;4.40;99.90;;;4.95;100.00;-19895.56;5070050;28;20266;-70
2022/01/29 05:49:52;;;;;;;9.13;5.97;;;4.40;99.90;;;5.25;100.00;-19905.47;5082137;28;20307;-71
2022/01/29 05:52:20;;;;;;;9.23;5.37;;;4.40;99.90;;;4.97;100.00;-19896.22;5077505;28;20227;-70
2022/01/29 05:54:51;;;;;;;9.20;6.10;;;4.40;99.90;;;4.82;100.00;-19891.09;5070668;28;20234;-69
2022/01/29 05:57:20;;;;;;;7.80;5.37;;;4.40;99.90;;;5.05;100.00;-19898.63;5070475;28;20226;-68
2022/01/29 05:59:49;;;;;;;8.70;5.70;;;4.40;99.90;;;5.13;100.00;-19901.38;5071079;28;20195;-70
2022/01/29 06:02:17;;;;;;;10.07;6.23;;;4.40;99.90;;;5.14;100.00;-19901.72;5069405;28;20221;-71
2022/01/29 06:04:45;;;;;;;9.13;6.40;;;4.40;99.90;;;5.16;100.00;-19902.41;5070538;28;20306;-70
2022/01/29 06:07:13;;;;;;;6.67;5.97;;;4.40;99.90;;;5.20;100.00;-19903.75;5070821;28;20234;-72
2022/01/29 06:09:41;;;;;;;10.83;7.60;;;4.30;99.90;;;5.11;100.00;-19900.69;5070241;28;20224;-71
2022/01/29 06:12:10;;;;;;;9.73;6.73;;;4.30;99.90;;;4.99;100.00;-19896.75;5058753;28;20264;-70
2022/01/29 06:14:38;;;;;;;8.80;6.90;;;4.30;99.90;;;5.06;100.00;-19898.97;5050544;28;20663;-73
2022/01/29 06:17:08;;;;;;;10.40;6.43;;;4.30;99.90;;;5.04;100.00;-19898.28;5047444;28;20642;-72
2022/01/29 06:19:36;;;;;;;10.93;8.63;;;4.30;99.90;;;4.85;100.00;-19891.97;5046507;28;20264;-74
2022/01/29 06:22:08;;;;;;;11.37;7.43;;;4.20;99.90;;;4.87;100.00;-19892.81;5059571;28;20860;-73
2022/01/29 06:24:36;;;;;;;12.10;8.10;;;4.20;99.90;;;4.77;100.00;-19889.22;5072317;28;20775;-62
2022/01/29 06:27:05;;;;;;;13.10;8.97;;;4.20;99.90;;;4.87;100.00;-19892.66;5074197;28;20637;-63
2022/01/29 06:29:33;;;;;;;10.23;7.40;;;4.10;99.90;;;4.99;100.00;-19896.75;5074443;28;20252;-62
2022/01/29 06:32:01;;;;;;;12.07;9.03;;;4.20;99.90;;;4.83;100.00;-19891.28;5073975;28;20219;-62
2022/01/29 06:34:31;;;;;;;12.87;9.60;;;4.20;99.90;;;4.92;100.00;-19894.34;5072712;28;20300;-62
2022/01/29 06:36:59;;;;;;;12.13;8.60;;;4.20;99.90;;;4.75;100.00;-19888.72;5073605;28;20228;-62
2022/01/29 06:39:27;;;;;;;13.77;7.60;;;4.10;99.90;;;4.86;100.00;-19892.31;5073813;28;20243;-62
2022/01/29 06:41:55;;;;;;;12.87;9.07;;;4.10;99.90;;;4.87;100.00;-19892.81;5073708;28;20808;-62
2022/01/29 06:44:23;;;;;;;15.43;7.47;;;4.10;99.90;;;4.91;100.00;-19894.00;5073752;28;20664;-62
2022/01/29 06:46:51;;;;;;;13.07;8.37;;;4.10;99.90;;;4.84;100.00;-19891.78;5067172;28;20285;-62
2022/01/29 06:49:19;;;;;;;9.23;7.23;;;4.10;99.90;;;4.84;100.00;-19891.78;5053356;28;20282;-63
2022/01/29 06:51:49;;;;;;;12.50;8.53;;;4.20;99.90;;;4.95;100.00;-19895.38;5053540;28;20242;-63
2022/01/29 06:54:17;;;;;;;11.53;8.40;;;4.10;99.90;;;4.85;100.00;-19892.13;5055959;28;20201;-62
2022/01/29 06:56:45;;;;;;;14.17;8.47;;;4.20;99.90;;;4.82;100.00;-19891.09;5073747;28;20597;-63
2022/01/29 06:59:13;;;;;;;14.10;9.53;;;4.10;99.90;;;4.86;100.00;-19892.31;5064158;28;20226;-64
2022/01/29 07:01:41;;;;;;;11.90;8.47;;;4.10;99.90;;;4.94;100.00;-19895.22;5058109;28;20389;-63
2022/01/29 07:04:09;;;;;;;14.90;8.43;;;4.30;99.90;;;4.72;100.00;-19887.50;5057426;28;20215;-63
2022/01/29 07:06:38;;;;;;;10.90;7.83;;;4.10;99.90;;;4.96;100.00;-19895.91;5053119;28;20223;-63
2022/01/29 07:09:08;;;;;;;12.70;8.23;;;4.20;99.90;;;4.95;100.00;-19895.56;5052969;28;20652;-63
2022/01/29 07:11:36;;;;;;;12.23;7.73;;;4.20;99.90;;;4.93;100.00;-19894.69;5053990;28;20213;-63
2022/01/29 07:14:04;;;;;;;11.23;7.77;;;4.20;99.90;;;4.93;100.00;-19894.69;5053518;28;20227;-63
2022/01/29 07:16:35;;;;;;;12.87;8.20;;;4.20;99.90;;;5.02;100.00;-19897.59;5064587;28;20222;-63
2022/01/29 07:19:04;;;;;;;11.57;7.57;;;4.20;99.90;;;4.98;100.00;-19896.59;5072933;28;20244;-62
2022/01/29 07:21:32;;;;;;;12.50;7.73;;;4.20;99.90;;;5.01;100.00;-19897.25;5080363;28;20272;-64
2022/01/29 07:24:00;;;;;;;10.20;7.63;;;4.20;99.90;;;4.91;100.00;-19894.19;5078562;28;20305;-64
2022/01/29 07:26:30;;;;;;;12.10;7.93;;;4.20;99.90;;;4.88;100.00;-19893.00;5072810;28;20220;-62
2022/01/29 07:28:58;;;;;;;12.77;7.67;;;4.20;99.90;;;4.86;100.00;-19892.47;5073120;28;20222;-63
2022/01/29 07:31:26;;;;;;;12.23;7.03;;;4.20;99.90;;;4.86;100.00;-19892.47;5056873;28;20223;-63
2022/01/29 07:33:54;;;;;;;9.70;6.83;;;4.20;99.90;;;4.92;100.00;-19894.34;5059316;28;20225;-63
2022/01/29 07:36:23;;;;;;;10.93;7.80;;;4.20;99.90;;;5.02;100.00;-19897.59;5072636;28;20226;-63
2022/01/29 07:38:51;;;;;;;12.10;7.97;;;4.20;99.90;;;5.08;100.00;-19899.66;5073392;28;20655;-63
2022/01/29 07:41:19;;;;;;;10.37;7.80;;;4.20;99.90;;;5.13;100.00;-19901.53;5073168;28;20620;-62
2022/01/29 07:43:48;;;;;;;13.90;9.80;;;4.30;99.90;;;5.00;100.00;-19897.09;5067135;28;20229;-63
2022/01/29 07:46:16;;;;;;;10.93;7.77;;;4.30;99.90;;;5.19;100.00;-19903.41;5053804;28;20308;-63
2022/01/29 07:48:49;;;;;;;12.23;7.47;;;4.30;99.90;;;5.10;100.00;-19900.50;5057560;28;20223;-63
2022/01/29 07:51:17;;;;;;;10.43;6.90;;;4.30;99.90;;;5.09;100.00;-19900.00;5072929;28;20231;-67
2022/01/29 07:53:45;;;;;;;10.73;7.17;;;4.30;99.90;;;5.16;100.00;-19902.41;5073319;28;20666;-63
2022/01/29 07:56:13;;;;;;;12.00;7.57;;;4.40;99.90;;;5.15;100.00;-19902.03;5054283;28;20574;-63
2022/01/29 07:58:41;;;;;;;13.57;7.27;;;4.40;99.90;;;5.07;100.00;-19899.31;5052058;28;20613;-63
2022/01/29 08:01:13;;;;;;;10.53;6.40;;;4.30;99.90;;;5.10;100.00;-19900.50;5061901;28;20259;-63
2022/01/29 08:03:41;;;;;;;9.43;6.63;;;4.30;99.90;;;5.01;100.00;-19897.44;5072491;28;20223;-63
2022/01/29 08:06:09;;;;;;;8.80;6.30;;;4.30;99.90;;;5.10;100.00;-19900.34;5072776;28;20200;-63
2022/01/29 08:08:37;;;;;;;10.43;7.00;;;4.30;99.90;;;4.87;100.00;-19892.81;5072704;28;20195;-64
2022/01/29 08:11:05;;;;;;;10.97;6.97;;;4.30;99.90;;;5.10;100.00;-19900.50;5071523;28;20278;-63
2022/01/29 08:13:34;;;;;;;10.80;7.07;;;4.30;99.90;;;5.01;100.00;-19897.25;5072723;28;20276;-64
2022/01/29 08:16:02;;;;;;;9.37;6.40;;;4.30;99.90;;;5.01;100.00;-19897.25;5071745;28;20235;-64
2022/01/29 08:18:31;;;;;;;10.07;6.97;;;4.30;99.90;;;5.09;100.00;-19900.16;5072319;28;20224;-64
2022/01/29 08:20:59;;;;;;;13.50;8.07;;;4.30;99.90;;;4.96;100.00;-19895.72;5072892;28;20643;-64
2022/01/29 08:23:27;;;;;;;10.20;7.27;;;4.30;99.90;;;4.91;100.00;-19894.00;5072684;28;20223;-64
2022/01/29 08:25:56;;;;;;;9.20;6.97;;;4.30;99.90;;;5.04;100.00;-19898.47;5072551;28;20229;-63
2022/01/29 08:28:25;;;;;;;10.73;7.23;;;4.30;99.90;;;5.05;100.00;-19898.81;5072240;28;20231;-64
2022/01/29 08:30:53;;;;;;;9.60;6.67;;;4.30;99.90;;;5.08;100.00;-19899.66;5072014;28;20249;-65
2022/01/29 08:33:21;;;;;;;9.83;6.40;;;4.30;99.90;;;5.13;100.00;-19901.38;5071531;28;24734;-64
2022/01/29 08:35:52;;;;;;;10.47;7.37;;;4.30;99.90;;;5.19;100.00;-19903.41;5071599;28;20198;-63
2022/01/29 08:38:20;;;;;;;9.23;6.87;;;4.40;99.90;;;5.25;100.00;-19905.47;5071799;28;20256;-63
2022/01/29 08:40:49;;;;;;;9.97;6.60;;;4.40;99.90;;;5.21;100.00;-19904.28;5070198;28;20287;-64
2022/01/29 08:43:17;;;;;;;8.17;6.40;;;4.40;99.90;;;5.33;100.00;-19908.19;5071379;28;20252;-63
2022/01/29 08:45:46;;;;;;;9.37;6.50;;;4.50;99.90;;;5.13;100.00;-19901.53;5071476;28;20246;-63
2022/01/29 08:48:14;;;;;;;9.77;6.33;;;4.50;99.90;;;5.15;100.00;-19902.03;5070698;28;20194;-63
2022/01/29 08:50:42;;;;;;;9.10;6.20;;;4.50;99.90;;;5.25;100.00;-19905.47;5072541;28;20206;-64
2022/01/29 08:53:19;;;;;;;8.73;6.70;;;4.50;99.90;;;5.31;100.00;-19907.53;5063556;28;20223;-63
2022/01/29 08:55:48;;;;;;;10.80;6.93;;;4.50;99.90;;;5.42;100.00;-19911.28;5071972;28;20247;-63
2022/01/29 08:58:16;;;;;;;9.47;6.47;;;4.50;99.90;;;5.23;100.00;-19904.78;5064911;28;20267;-63
2022/01/29 09:00:47;;;;;;;9.50;6.63;;;4.60;99.90;;;5.45;100.00;-19912.31;5056631;28;20304;-63
2022/01/29 09:03:18;;;;;;;10.37;7.37;;;4.60;99.90;;;5.37;100.00;-19909.56;5050975;28;20720;-63
2022/01/29 09:05:48;;;;;;;9.23;6.93;;;4.70;99.90;;;5.32;100.00;-19908.03;5051358;28;20188;-65
2022/01/29 09:08:20;;;;;;;9.40;6.40;;;4.70;99.90;;;5.61;100.00;-19917.94;5051229;28;20231;-63
2022/01/29 09:10:48;;;;;;;9.63;7.30;;;4.70;99.90;;;5.53;100.00;-19915.22;5050557;28;20223;-64
2022/01/29 09:13:16;;;;;;;10.53;7.63;;;4.80;99.90;;;5.64;100.00;-19918.97;5048368;28;20223;-63
2022/01/29 09:15:44;;;;;;;10.97;7.40;;;4.80;99.90;;;5.63;100.00;-19918.47;5056695;28;20853;-64
2022/01/29 09:18:13;;;;;;;10.37;7.47;;;4.80;99.90;;;5.59;100.00;-19917.25;5071063;28;20203;-63
2022/01/29 09:20:41;;;;;;;8.67;6.30;;;4.90;99.90;;;5.67;100.00;-19920.00;5071719;28;20235;-64
2022/01/29 09:23:09;;;;;;;8.10;6.37;;;4.90;99.90;;;5.75;100.00;-19922.72;5071010;28;20247;-64
2022/01/29 09:25:40;;;;;;;8.33;6.07;;;5.00;99.90;;;5.81;100.00;-19924.59;5071411;28;20248;-64
2022/01/29 09:28:11;;;;;;;8.97;5.93;;;5.00;99.90;;;5.80;100.00;-19924.28;5070982;28;20256;-64
2022/01/29 09:30:40;;;;;;;7.30;5.60;;;5.10;99.90;;;5.94;100.00;-19929.22;5070456;28;20234;-62
2022/01/29 09:33:09;;;;;;;8.63;6.53;;;5.20;99.90;;;6.05;100.00;-19932.97;5070271;28;20698;-62
2022/01/29 09:35:38;;;;;;;7.50;5.70;;;5.20;99.90;;;6.05;100.00;-19932.97;5070997;28;20197;-63
2022/01/29 09:38:07;;;;;;;9.17;6.40;;;5.20;99.90;;;6.14;100.00;-19935.88;5070621;28;20297;-62
2022/01/29 09:40:36;;;;;;;7.33;5.90;;;5.30;99.90;;;6.17;100.00;-19937.09;5070602;28;20745;-63
2022/01/29 09:43:08;;;;;;;9.33;6.10;;;5.40;99.90;;;6.33;100.00;-19942.22;5069868;28;20244;-63
2022/01/29 09:45:38;;;;;;;7.70;6.07;;;5.40;99.90;;;6.54;100.00;-19949.41;5071056;28;20261;-64
2022/01/29 09:48:06;;;;;;;8.17;6.07;;;5.60;99.90;;;6.70;100.00;-19954.84;5063601;28;20239;-62
2022/01/29 09:50:38;;;;;;;7.73;5.60;;;5.70;99.90;;;6.82;100.00;-19958.97;5070647;28;20230;-63
2022/01/29 09:53:08;;;;;;;8.00;6.03;;;5.80;99.90;;;6.85;100.00;-19960.16;5068611;28;20247;-65
2022/01/29 09:55:36;;;;;;;8.20;5.77;;;5.90;99.90;;;6.91;100.00;-19962.22;5070605;28;20231;-64
2022/01/29 09:58:06;;;;;;;7.47;5.40;;;5.90;99.90;;;6.87;100.00;-19960.84;5071185;28;20764;-63
2022/01/29 10:00:34;;;;;;;6.47;4.90;;;6.00;99.90;;;7.09;100.00;-19968.19;5070393;28;20303;-62
2022/01/29 10:03:20;;;;;;;7.13;5.70;;;6.00;99.90;;;7.16;100.00;-19970.75;5070670;28;20227;-64
2022/01/29 10:05:52;;;;;;;6.83;5.33;;;6.10;99.90;;;7.14;100.00;-19970.06;5070745;28;20281;-63
2022/01/29 10:08:22;;;;;;;7.87;5.10;;;6.20;99.90;;;7.12;100.00;-19969.22;5070843;28;20290;-62
2022/01/29 10:10:52;;;;;;;6.47;5.10;;;6.20;99.90;;;7.26;100.00;-19974.00;5070366;28;20252;-62
2022/01/29 10:13:29;;;;;;;5.10;4.47;;;6.20;99.90;;;7.29;100.00;-19975.03;5070617;28;20228;-63
2022/01/29 10:16:10;;;;;;;6.40;4.77;;;6.30;99.90;;;7.65;100.00;-19987.34;5070038;28;20258;-63
2022/01/29 10:18:41;;;;;;;5.87;4.77;;;6.40;99.90;;;7.75;100.00;-19990.75;5069614;28;20216;-63
2022/01/29 10:21:18;;;;;;;5.87;5.03;;;6.60;99.90;;;7.89;100.00;-19995.34;5071204;28;20210;-75
2022/01/29 10:23:46;;;;;;;7.10;5.30;;;6.70;99.90;;;7.86;100.00;-19994.34;5071864;28;20200;-75
2022/01/29 10:26:28;;;;;;;5.97;4.93;;;6.80;99.90;;;7.84;100.00;-19993.66;5070762;28;20647;-71
2022/01/29 10:28:58;;;;;;;6.57;4.40;;;6.80;99.90;;;7.84;100.00;-19993.81;5071629;28;20228;-75
2022/01/29 10:31:38;;;;;;;4.73;4.13;;;6.80;99.90;;;7.74;100.00;-19990.41;5072479;28;20361;-74